createdAt,value
2018-03-07T00:00:22.077Z,0
2018-03-07T00:01:23.744Z,0
2018-03-07T00:02:25.407Z,0
2018-03-07T00:03:27.055Z,0
2018-03-07T00:04:28.752Z,0
2018-03-07T00:05:30.343Z,0
2018-03-07T00:06:31.989Z,0
2018-03-07T00:07:33.631Z,0
2018-03-07T00:08:35.292Z,0
2018-03-07T00:09:36.933Z,0
2018-03-07T00:10:38.610Z,0
2018-03-07T00:11:40.303Z,0
2018-03-07T00:12:41.949Z,0
2018-03-07T00:13:43.597Z,0
2018-03-07T00:14:45.241Z,0
2018-03-07T00:15:46.883Z,0
2018-03-07T00:16:48.534Z,0
2018-03-07T00:17:50.188Z,0
2018-03-07T00:18:51.823Z,0
2018-03-07T00:19:53.471Z,0
2018-03-07T00:20:55.116Z,0
2018-03-07T00:21:56.758Z,0
2018-03-07T00:22:58.403Z,0
2018-03-07T00:24:00.053Z,0
2018-03-07T00:25:01.691Z,0
2018-03-07T00:26:03.339Z,0
2018-03-07T00:27:04.986Z,0
2018-03-07T00:28:06.634Z,0
2018-03-07T00:29:08.297Z,0
2018-03-07T00:30:09.933Z,0
2018-03-07T00:31:11.579Z,0
2018-03-07T00:32:13.217Z,0
2018-03-07T00:33:14.859Z,0
2018-03-07T00:34:16.509Z,0
2018-03-07T00:35:18.186Z,0
2018-03-07T00:36:19.832Z,0
2018-03-07T00:37:21.477Z,0
2018-03-07T00:38:23.118Z,0
2018-03-07T00:39:24.767Z,0
2018-03-07T00:40:26.419Z,0
2018-03-07T00:41:28.066Z,0
2018-03-07T00:42:29.714Z,0
2018-03-07T00:43:31.359Z,0
2018-03-07T00:44:33.016Z,0
2018-03-07T00:45:34.662Z,0
2018-03-07T00:46:36.301Z,0
2018-03-07T00:47:37.997Z,0
2018-03-07T00:48:39.650Z,0
2018-03-07T00:49:41.291Z,0
2018-03-07T00:50:42.933Z,0
2018-03-07T00:51:44.581Z,0
2018-03-07T00:52:46.227Z,0
2018-03-07T00:53:47.869Z,0
2018-03-07T00:54:49.521Z,0
2018-03-07T00:55:51.160Z,0
2018-03-07T00:56:52.815Z,0
2018-03-07T00:57:54.523Z,0
2018-03-07T00:58:56.159Z,0
2018-03-07T00:59:57.807Z,0
2018-03-07T01:00:59.456Z,0
2018-03-07T01:02:01.094Z,0
2018-03-07T01:03:02.745Z,0
2018-03-07T01:04:04.392Z,0
2018-03-07T01:05:06.035Z,0
2018-03-07T01:06:07.683Z,0
2018-03-07T01:07:09.331Z,0
2018-03-07T01:08:10.971Z,0
2018-03-07T01:09:12.617Z,0
2018-03-07T01:10:14.265Z,0
2018-03-07T01:11:15.918Z,0
2018-03-07T01:12:17.577Z,0
2018-03-07T01:13:19.220Z,0
2018-03-07T01:14:20.873Z,0
2018-03-07T01:15:22.517Z,0
2018-03-07T01:16:24.170Z,0
2018-03-07T01:17:25.814Z,0
2018-03-07T01:18:27.454Z,0
2018-03-07T01:19:29.105Z,0
2018-03-07T01:20:30.751Z,0
2018-03-07T01:21:32.400Z,0
2018-03-07T01:22:34.049Z,0
2018-03-07T01:23:35.694Z,0
2018-03-07T01:24:37.350Z,0
2018-03-07T01:25:38.997Z,0
2018-03-07T01:26:40.640Z,0
2018-03-07T01:27:42.292Z,0
2018-03-07T01:28:44.012Z,0
2018-03-07T01:29:45.657Z,0
2018-03-07T01:30:47.313Z,0
2018-03-07T01:31:48.963Z,0
2018-03-07T01:32:50.611Z,0
2018-03-07T01:33:52.256Z,0
2018-03-07T01:34:53.897Z,0
2018-03-07T01:35:55.548Z,0
2018-03-07T01:36:57.197Z,0
2018-03-07T01:37:58.851Z,0
2018-03-07T01:39:00.492Z,0
2018-03-07T01:40:02.153Z,0
2018-03-07T01:41:03.801Z,0
2018-03-07T01:42:05.448Z,0
2018-03-07T01:43:07.082Z,0
2018-03-07T01:44:08.729Z,0
2018-03-07T01:45:10.396Z,0
2018-03-07T01:46:12.049Z,0
2018-03-07T01:47:13.694Z,0
2018-03-07T01:48:15.336Z,0
2018-03-07T01:49:16.992Z,0
2018-03-07T01:50:18.641Z,0
2018-03-07T01:51:20.304Z,0
2018-03-07T01:52:21.947Z,0
2018-03-07T01:53:23.600Z,0
2018-03-07T01:54:25.250Z,0
2018-03-07T01:55:26.903Z,0
2018-03-07T01:56:28.571Z,0
2018-03-07T01:57:30.218Z,0
2018-03-07T01:58:31.857Z,0
2018-03-07T01:59:33.518Z,0
2018-03-07T02:00:35.173Z,0
2018-03-07T02:01:36.828Z,0
2018-03-07T02:02:38.466Z,0
2018-03-07T02:03:40.111Z,0
2018-03-07T02:04:41.760Z,0
2018-03-07T02:05:43.412Z,0
2018-03-07T02:06:45.060Z,0
2018-03-07T02:07:46.714Z,0
2018-03-07T02:08:48.368Z,0
2018-03-07T02:09:50.007Z,0
2018-03-07T02:10:51.664Z,0
2018-03-07T02:11:53.321Z,0
2018-03-07T02:12:54.967Z,0
2018-03-07T02:13:56.618Z,0
2018-03-07T02:14:58.274Z,0
2018-03-07T02:16:00.042Z,0
2018-03-07T02:17:01.689Z,0
2018-03-07T02:18:03.341Z,0
2018-03-07T02:19:04.987Z,0
2018-03-07T02:20:06.685Z,0
2018-03-07T02:21:08.280Z,0
2018-03-07T02:22:09.936Z,0
2018-03-07T02:23:11.587Z,0
2018-03-07T02:24:13.234Z,0
2018-03-07T02:25:14.882Z,0
2018-03-07T02:26:16.527Z,0
2018-03-07T02:27:18.178Z,0
2018-03-07T02:28:19.836Z,0
2018-03-07T02:29:21.481Z,0
2018-03-07T02:30:23.143Z,0
2018-03-07T02:31:25.059Z,0
2018-03-07T02:32:26.711Z,0
2018-03-07T02:33:28.366Z,0
2018-03-07T02:34:30.010Z,0
2018-03-07T02:35:32.177Z,0
2018-03-07T02:36:33.835Z,0
2018-03-07T02:37:35.680Z,0
2018-03-07T02:38:37.328Z,0
2018-03-07T02:39:38.982Z,0
2018-03-07T02:40:40.631Z,0
2018-03-07T02:41:42.279Z,0
2018-03-07T02:42:43.928Z,0
2018-03-07T02:43:45.572Z,0
2018-03-07T02:44:47.245Z,0
2018-03-07T02:45:48.894Z,0
2018-03-07T02:46:50.543Z,0
2018-03-07T02:47:52.192Z,0
2018-03-07T02:48:53.859Z,0
2018-03-07T02:49:55.512Z,0
2018-03-07T02:50:57.192Z,0
2018-03-07T02:51:58.844Z,0
2018-03-07T02:53:00.492Z,0
2018-03-07T02:54:02.144Z,0
2018-03-07T02:55:03.790Z,0
2018-03-07T03:01:18.244Z,0
2018-03-07T03:02:19.903Z,0
2018-03-07T03:04:11.812Z,0
2018-03-07T03:05:13.464Z,0
2018-03-07T03:06:15.095Z,0
2018-03-07T03:07:16.739Z,0
2018-03-07T03:08:18.385Z,0
2018-03-07T03:09:20.030Z,0
2018-03-07T03:10:21.679Z,0
2018-03-07T03:11:23.331Z,0
2018-03-07T03:12:24.984Z,0
2018-03-07T03:13:26.627Z,0
2018-03-07T03:14:28.279Z,0
2018-03-07T03:15:29.924Z,0
2018-03-07T03:16:31.566Z,0
2018-03-07T03:17:33.216Z,0
2018-03-07T03:18:34.876Z,0
2018-03-07T03:19:36.520Z,0
2018-03-07T03:20:38.167Z,0
2018-03-07T03:21:39.854Z,0
2018-03-07T03:22:41.495Z,0
2018-03-07T03:23:43.139Z,0
2018-03-07T03:24:44.778Z,0
2018-03-07T03:25:46.433Z,0
2018-03-07T03:26:48.079Z,0
2018-03-07T03:27:49.725Z,0
2018-03-07T03:28:51.370Z,0
2018-03-07T03:29:53.039Z,0
2018-03-07T03:30:54.695Z,0
2018-03-07T03:31:56.333Z,0
2018-03-07T03:32:57.977Z,0
2018-03-07T03:33:59.622Z,0
2018-03-07T03:35:01.270Z,0
2018-03-07T03:36:02.914Z,0
2018-03-07T03:37:04.557Z,0
2018-03-07T03:38:06.209Z,0
2018-03-07T03:39:07.876Z,0
2018-03-07T03:40:09.517Z,0
2018-03-07T03:41:11.160Z,0
2018-03-07T03:42:12.809Z,0
2018-03-07T03:43:14.460Z,0
2018-03-07T03:44:16.114Z,0
2018-03-07T03:45:17.756Z,0
2018-03-07T03:46:19.403Z,0
2018-03-07T03:47:21.056Z,0
2018-03-07T03:48:22.698Z,0
2018-03-07T03:49:24.340Z,0
2018-03-07T03:50:26.025Z,0
2018-03-07T03:51:27.666Z,0
2018-03-07T03:52:29.345Z,0
2018-03-07T03:53:30.987Z,0
2018-03-07T03:54:32.634Z,0
2018-03-07T03:55:34.282Z,0
2018-03-07T03:56:35.922Z,0
2018-03-07T03:57:37.566Z,0
2018-03-07T03:58:39.214Z,0
2018-03-07T03:59:40.872Z,0
2018-03-07T04:00:42.514Z,0
2018-03-07T04:01:44.162Z,0
2018-03-07T04:02:45.803Z,0
2018-03-07T04:03:47.446Z,0
2018-03-07T04:04:49.126Z,0
2018-03-07T04:05:50.771Z,0
2018-03-07T04:06:53.214Z,0
2018-03-07T04:07:54.857Z,0
2018-03-07T04:08:56.507Z,0
2018-03-07T04:09:58.158Z,0
2018-03-07T04:10:59.797Z,0
2018-03-07T04:12:01.444Z,0
2018-03-07T04:13:03.087Z,0
2018-03-07T04:14:04.727Z,0
2018-03-07T04:15:06.376Z,0
2018-03-07T04:16:08.023Z,0
2018-03-07T04:17:09.664Z,0
2018-03-07T04:18:11.312Z,0
2018-03-07T04:19:12.957Z,0
2018-03-07T04:20:14.599Z,0
2018-03-07T04:21:16.244Z,0
2018-03-07T04:22:17.893Z,0
2018-03-07T04:23:19.536Z,0
2018-03-07T04:24:21.182Z,0
2018-03-07T04:25:22.818Z,0
2018-03-07T04:26:24.469Z,0
2018-03-07T04:27:26.116Z,0
2018-03-07T04:28:27.770Z,0
2018-03-07T04:29:29.410Z,0
2018-03-07T04:30:31.064Z,0
2018-03-07T04:31:32.727Z,0
2018-03-07T04:32:34.374Z,0
2018-03-07T04:33:36.021Z,0
2018-03-07T04:34:37.675Z,0
2018-03-07T04:35:39.319Z,0
2018-03-07T04:36:40.970Z,0
2018-03-07T04:37:42.614Z,0
2018-03-07T04:38:44.261Z,0
2018-03-07T04:39:45.912Z,0
2018-03-07T04:40:47.555Z,0
2018-03-07T04:41:49.209Z,0
2018-03-07T04:42:50.852Z,0
2018-03-07T04:43:52.505Z,0
2018-03-07T04:44:54.150Z,0
2018-03-07T04:45:55.787Z,0
2018-03-07T04:46:57.440Z,0
2018-03-07T04:47:59.084Z,0
2018-03-07T04:49:00.813Z,0
2018-03-07T04:50:02.463Z,0
2018-03-07T04:51:04.110Z,0
2018-03-07T04:52:05.758Z,0
2018-03-07T04:53:07.405Z,0
2018-03-07T04:54:09.047Z,0
2018-03-07T04:55:10.698Z,0
2018-03-07T04:56:12.348Z,0
2018-03-07T04:57:13.988Z,0
2018-03-07T04:58:15.631Z,0
2018-03-07T04:59:17.275Z,0
2018-03-07T05:00:18.920Z,0
2018-03-07T05:01:20.569Z,0
2018-03-07T05:02:22.213Z,0
2018-03-07T05:03:23.885Z,0
2018-03-07T05:04:25.568Z,0
2018-03-07T05:05:27.178Z,0
2018-03-07T05:06:28.825Z,0
2018-03-07T05:07:30.469Z,0
2018-03-07T05:08:32.126Z,0
2018-03-07T05:09:33.766Z,0
2018-03-07T05:10:35.426Z,0
2018-03-07T05:11:37.061Z,0
2018-03-07T05:12:38.699Z,0
2018-03-07T05:13:40.347Z,0
2018-03-07T05:14:41.991Z,0
2018-03-07T05:15:43.681Z,0
2018-03-07T05:16:45.329Z,0
2018-03-07T05:17:46.970Z,0
2018-03-07T05:18:48.636Z,0
2018-03-07T05:19:50.263Z,0
2018-03-07T05:20:51.908Z,0
2018-03-07T05:21:53.548Z,0
2018-03-07T05:22:55.190Z,0
2018-03-07T05:23:56.844Z,0
2018-03-07T05:24:58.488Z,0
2018-03-07T05:26:00.149Z,0
2018-03-07T05:27:01.796Z,0
2018-03-07T05:28:03.445Z,4
2018-03-07T05:29:05.097Z,4
2018-03-07T05:30:06.742Z,4
2018-03-07T05:31:08.449Z,4
2018-03-07T05:32:10.088Z,8
2018-03-07T05:33:11.734Z,4
2018-03-07T05:34:13.389Z,8
2018-03-07T05:35:15.043Z,8
2018-03-07T05:36:16.676Z,8
2018-03-07T05:37:18.330Z,12
2018-03-07T05:38:19.977Z,16
2018-03-07T05:39:21.617Z,16
2018-03-07T05:40:23.268Z,20
2018-03-07T05:41:24.920Z,28
2018-03-07T05:42:26.580Z,32
2018-03-07T05:43:28.238Z,32
2018-03-07T05:44:29.887Z,40
2018-03-07T05:45:31.539Z,40
2018-03-07T05:46:33.194Z,44
2018-03-07T05:47:34.841Z,40
2018-03-07T05:48:36.489Z,44
2018-03-07T05:49:38.139Z,56
2018-03-07T05:50:39.784Z,68
2018-03-07T05:51:41.436Z,76
2018-03-07T05:52:43.082Z,80
2018-03-07T05:53:44.717Z,80
2018-03-07T05:54:46.369Z,80
2018-03-07T05:55:48.015Z,92
2018-03-07T05:56:49.720Z,116
2018-03-07T05:57:51.356Z,140
2018-03-07T05:58:53.017Z,180
2018-03-07T05:59:54.681Z,204
2018-03-07T06:00:56.318Z,208
2018-03-07T06:01:57.976Z,216
2018-03-07T06:02:59.620Z,228
2018-03-07T06:04:01.280Z,244
2018-03-07T06:05:02.944Z,264
2018-03-07T06:06:04.616Z,280
2018-03-07T06:07:06.256Z,300
2018-03-07T06:08:07.916Z,316
2018-03-07T06:09:09.559Z,348
2018-03-07T06:10:11.264Z,384
2018-03-07T06:11:12.918Z,436
2018-03-07T06:12:14.568Z,456
2018-03-07T06:13:16.220Z,460
2018-03-07T06:14:17.872Z,496
2018-03-07T06:15:19.531Z,520
2018-03-07T06:16:21.187Z,512
2018-03-07T06:17:22.829Z,460
2018-03-07T06:18:24.476Z,428
2018-03-07T06:19:26.124Z,432
2018-03-07T06:20:27.847Z,456
2018-03-07T06:21:29.428Z,504
2018-03-07T06:22:31.087Z,500
2018-03-07T06:23:32.745Z,508
2018-03-07T06:24:34.393Z,572
2018-03-07T06:25:36.050Z,616
2018-03-07T06:26:37.692Z,628
2018-03-07T06:27:39.337Z,668
2018-03-07T06:28:40.989Z,696
2018-03-07T06:29:42.631Z,696
2018-03-07T06:30:44.284Z,684
2018-03-07T06:31:45.925Z,716
2018-03-07T06:32:47.581Z,752
2018-03-07T06:33:49.228Z,780
2018-03-07T06:34:50.879Z,844
2018-03-07T06:35:52.532Z,884
2018-03-07T06:36:54.191Z,1008
2018-03-07T06:37:55.842Z,1180
2018-03-07T06:38:57.490Z,1420
2018-03-07T06:39:59.153Z,1676
2018-03-07T06:41:00.807Z,1896
2018-03-07T06:42:02.454Z,1992
2018-03-07T06:43:04.107Z,2132
2018-03-07T06:44:05.753Z,2228
2018-03-07T06:45:07.422Z,2352
2018-03-07T06:46:09.065Z,2620
2018-03-07T06:47:10.721Z,2752
2018-03-07T06:48:12.375Z,2908
2018-03-07T06:49:14.038Z,3148
2018-03-07T06:50:15.734Z,3284
2018-03-07T06:51:17.346Z,3460
2018-03-07T06:52:19.007Z,3704
2018-03-07T06:53:20.652Z,3752
2018-03-07T06:54:22.306Z,3512
2018-03-07T07:00:56.125Z,2764
2018-03-07T07:01:57.772Z,2792
2018-03-07T07:03:49.707Z,3252
2018-03-07T07:04:51.360Z,3184
2018-03-07T07:06:43.262Z,3300
2018-03-07T07:07:44.922Z,3436
2018-03-07T07:09:36.841Z,3828
2018-03-07T07:10:38.497Z,4252
2018-03-07T07:11:40.144Z,4080
2018-03-07T07:12:41.804Z,4212
2018-03-07T07:13:43.448Z,4864
2018-03-07T07:14:45.104Z,5020
2018-03-07T07:15:46.762Z,4712
2018-03-07T07:16:48.428Z,5384
2018-03-07T07:17:50.068Z,5996
2018-03-07T07:18:51.806Z,5660
2018-03-07T07:19:53.457Z,5084
2018-03-07T07:20:55.107Z,5564
2018-03-07T07:21:56.765Z,6556
2018-03-07T07:22:58.426Z,6476
2018-03-07T07:24:00.089Z,6184
2018-03-07T07:25:01.730Z,6676
2018-03-07T07:26:03.393Z,6468
2018-03-07T07:27:05.061Z,5824
2018-03-07T07:28:06.715Z,5576
2018-03-07T07:29:08.385Z,5568
2018-03-07T07:30:10.022Z,6136
2018-03-07T07:31:11.679Z,7168
2018-03-07T07:32:13.335Z,7900
2018-03-07T07:33:15.000Z,6860
2018-03-07T07:34:17.015Z,6620
2018-03-07T07:35:18.663Z,6872
2018-03-07T07:36:20.318Z,7560
2018-03-07T07:37:22.002Z,7540
2018-03-07T07:38:23.625Z,7056
2018-03-07T07:39:25.276Z,6796
2018-03-07T07:40:26.926Z,6772
2018-03-07T07:41:28.574Z,6608
2018-03-07T07:42:30.235Z,6792
2018-03-07T07:43:31.884Z,7396
2018-03-07T07:44:33.615Z,7456
2018-03-07T07:45:35.271Z,7160
2018-03-07T07:46:36.930Z,7504
2018-03-07T07:47:38.584Z,8148
2018-03-07T07:48:40.242Z,8560
2018-03-07T07:49:42.125Z,9280
2018-03-07T07:50:43.835Z,8964
2018-03-07T07:51:45.439Z,8824
2018-03-07T07:52:47.100Z,9228
2018-03-07T07:53:48.752Z,9044
2018-03-07T07:54:50.407Z,9364
2018-03-07T07:55:52.194Z,9000
2018-03-07T07:56:53.858Z,8000
2018-03-07T07:57:55.528Z,8380
2018-03-07T07:58:57.227Z,8988
2018-03-07T07:59:58.863Z,9308
2018-03-07T08:01:00.523Z,9536
2018-03-07T08:02:02.175Z,9956
2018-03-07T08:03:03.837Z,10512
2018-03-07T08:04:05.491Z,10340
2018-03-07T08:05:07.146Z,10020
2018-03-07T08:06:08.801Z,9716
2018-03-07T08:07:10.467Z,9976
2018-03-07T08:08:12.167Z,10740
2018-03-07T08:09:13.829Z,11640
2018-03-07T08:10:15.486Z,11888
2018-03-07T08:11:17.137Z,11652
2018-03-07T08:12:18.794Z,11420
2018-03-07T08:13:20.449Z,11200
2018-03-07T08:14:22.123Z,10600
2018-03-07T08:15:23.785Z,10284
2018-03-07T08:16:25.439Z,10312
2018-03-07T08:17:27.093Z,10644
2018-03-07T08:18:28.752Z,11476
2018-03-07T08:19:30.406Z,12620
2018-03-07T08:20:32.066Z,13480
2018-03-07T08:21:33.725Z,13628
2018-03-07T08:22:35.377Z,13028
2018-03-07T08:23:37.035Z,12672
2018-03-07T08:24:38.702Z,12964
2018-03-07T08:25:40.360Z,13200
2018-03-07T08:26:42.010Z,13356
2018-03-07T08:27:43.711Z,13928
2018-03-07T08:28:45.331Z,14632
2018-03-07T08:29:47.000Z,15108
2018-03-07T08:30:48.652Z,15584
2018-03-07T08:31:50.308Z,15952
2018-03-07T08:32:51.960Z,15244
2018-03-07T08:33:53.623Z,14552
2018-03-07T08:34:55.293Z,14876
2018-03-07T08:35:56.954Z,15380
2018-03-07T08:36:58.622Z,15336
2018-03-07T08:38:00.278Z,15204
2018-03-07T08:39:01.944Z,15312
2018-03-07T08:40:03.600Z,15132
2018-03-07T08:41:05.259Z,13916
2018-03-07T08:42:06.926Z,12460
2018-03-07T08:43:08.581Z,11044
2018-03-07T08:44:10.230Z,10232
2018-03-07T08:45:11.906Z,10068
2018-03-07T08:46:13.565Z,10200
2018-03-07T08:47:15.246Z,10420
2018-03-07T08:48:16.895Z,10224
2018-03-07T08:49:18.561Z,9896
2018-03-07T08:50:20.225Z,10028
2018-03-07T08:51:21.886Z,9632
2018-03-07T08:52:23.536Z,9860
2018-03-07T08:53:25.196Z,10428
2018-03-07T08:54:26.860Z,10548
2018-03-07T08:55:28.510Z,9908
2018-03-07T08:56:30.182Z,9256
2018-03-07T08:57:31.836Z,8940
2018-03-07T08:58:33.599Z,8740
2018-03-07T08:59:35.253Z,8732
2018-03-07T09:00:36.954Z,9020
2018-03-07T09:01:38.588Z,10252
2018-03-07T09:02:40.234Z,11136
2018-03-07T09:03:41.898Z,10696
2018-03-07T09:04:43.554Z,10752
2018-03-07T09:05:45.208Z,11524
2018-03-07T09:06:46.895Z,14044
2018-03-07T09:07:48.556Z,15184
2018-03-07T09:08:50.217Z,14492
2018-03-07T09:09:51.888Z,15924
2018-03-07T09:10:53.628Z,16312
2018-03-07T09:11:55.304Z,16528
2018-03-07T09:12:56.958Z,15516
2018-03-07T09:13:58.620Z,14500
2018-03-07T09:15:00.276Z,13420
2018-03-07T09:16:01.934Z,13864
2018-03-07T09:17:03.603Z,14888
2018-03-07T09:18:05.268Z,15552
2018-03-07T09:19:06.932Z,15416
2018-03-07T09:20:08.586Z,15356
2018-03-07T09:21:10.240Z,16088
2018-03-07T09:22:11.900Z,17356
2018-03-07T09:23:13.567Z,19424
2018-03-07T09:24:15.228Z,19584
2018-03-07T09:25:16.895Z,19328
2018-03-07T09:26:18.550Z,19520
2018-03-07T09:27:20.208Z,22016
2018-03-07T09:28:21.868Z,21248
2018-03-07T09:29:23.523Z,19616
2018-03-07T09:30:25.199Z,20000
2018-03-07T09:31:26.862Z,21504
2018-03-07T09:32:28.523Z,20448
2018-03-07T09:33:30.182Z,21920
2018-03-07T09:34:31.834Z,23200
2018-03-07T09:35:33.490Z,24096
2018-03-07T09:36:35.150Z,22848
2018-03-07T09:37:36.805Z,25600
2018-03-07T09:38:38.458Z,23968
2018-03-07T09:39:40.120Z,25216
2018-03-07T09:40:41.789Z,28672
2018-03-07T09:41:43.458Z,26944
2018-03-07T09:42:45.108Z,27072
2018-03-07T09:43:46.774Z,32544
2018-03-07T09:44:48.432Z,39584
2018-03-07T09:45:50.101Z,35040
2018-03-07T09:46:51.777Z,60192
2018-03-07T09:47:53.449Z,32512
2018-03-07T09:48:55.245Z,31840
2018-03-07T09:49:56.903Z,33760
2018-03-07T09:50:58.558Z,34624
2018-03-07T09:52:00.244Z,47904
2018-03-07T09:53:01.898Z,61472
2018-03-07T09:54:03.598Z,64608
2018-03-07T09:55:05.264Z,53376
2018-03-07T09:56:06.985Z,61888
2018-03-07T09:57:08.605Z,67424
2018-03-07T09:58:10.274Z,58048
2018-03-07T09:59:11.938Z,52288
2018-03-07T10:00:13.613Z,36416
2018-03-07T10:01:15.277Z,45152
2018-03-07T10:02:16.945Z,45024
2018-03-07T10:03:18.607Z,52576
2018-03-07T10:04:20.300Z,39104
2018-03-07T10:05:21.967Z,22976
2018-03-07T10:06:23.643Z,23488
2018-03-07T10:07:25.322Z,25344
2018-03-07T10:08:26.973Z,22784
2018-03-07T10:09:28.643Z,16548
2018-03-07T10:10:30.356Z,12588
2018-03-07T10:11:32.010Z,11840
2018-03-07T10:12:33.675Z,11396
2018-03-07T10:13:38.859Z,10576
2018-03-07T10:14:40.495Z,10020
2018-03-07T10:15:42.159Z,9568
2018-03-07T10:16:43.820Z,10108
2018-03-07T10:17:45.490Z,12448
2018-03-07T10:18:47.154Z,13432
2018-03-07T10:19:48.809Z,14568
2018-03-07T10:20:50.484Z,18908
2018-03-07T10:21:52.134Z,39744
2018-03-07T10:22:53.810Z,61088
2018-03-07T10:23:55.461Z,19040
2018-03-07T10:24:57.130Z,18272
2018-03-07T10:25:58.786Z,21376
2018-03-07T10:27:00.444Z,19552
2018-03-07T10:28:02.108Z,19968
2018-03-07T10:29:03.778Z,20608
2018-03-07T10:30:05.450Z,22304
2018-03-07T10:31:07.106Z,29088
2018-03-07T10:32:08.777Z,33664
2018-03-07T10:33:10.440Z,36288
2018-03-07T10:34:12.110Z,29760
2018-03-07T10:35:13.780Z,27072
2018-03-07T10:36:15.447Z,41696
2018-03-07T10:37:17.110Z,96160
2018-03-07T10:38:18.780Z,39136
2018-03-07T10:39:20.447Z,81280
2018-03-07T10:40:22.122Z,98272
2018-03-07T10:41:23.784Z,127264
2018-03-07T10:42:25.453Z,125472
2018-03-07T10:43:27.116Z,119616
2018-03-07T10:44:28.803Z,98656
2018-03-07T10:45:30.468Z,26080
2018-03-07T10:46:37.728Z,21504
2018-03-07T10:47:39.349Z,22560
2018-03-07T10:48:41.186Z,75776
2018-03-07T10:49:42.857Z,25120
2018-03-07T10:50:44.529Z,31104
2018-03-07T10:51:46.488Z,44768
2018-03-07T10:52:53.039Z,26752
2018-03-07T10:53:54.547Z,21184
2018-03-07T10:54:56.206Z,18944
2018-03-07T11:01:46.081Z,26784
2018-03-07T11:02:48.312Z,24416
2018-03-07T11:03:49.975Z,22144
2018-03-07T11:04:52.242Z,20576
2018-03-07T11:05:53.807Z,20864
2018-03-07T11:06:55.678Z,21440
2018-03-07T11:07:58.977Z,21088
2018-03-07T11:09:00.643Z,20416
2018-03-07T11:10:02.928Z,20256
2018-03-07T11:11:04.592Z,20416
2018-03-07T11:12:06.264Z,20000
2018-03-07T11:13:07.919Z,18176
2018-03-07T11:14:09.582Z,16360
2018-03-07T11:15:11.246Z,15536
2018-03-07T11:16:12.913Z,15880
2018-03-07T11:17:15.066Z,15880
2018-03-07T11:18:16.460Z,14120
2018-03-07T11:19:18.124Z,12044
2018-03-07T11:20:20.271Z,11144
2018-03-07T11:21:21.930Z,10736
2018-03-07T11:22:24.510Z,10996
2018-03-07T11:23:26.169Z,10772
2018-03-07T11:24:28.848Z,10008
2018-03-07T11:25:30.503Z,9624
2018-03-07T11:26:32.878Z,10232
2018-03-07T11:27:34.621Z,11652
2018-03-07T11:28:36.933Z,12672
2018-03-07T11:29:38.599Z,11776
2018-03-07T11:30:41.359Z,9872
2018-03-07T11:31:43.027Z,9560
2018-03-07T11:32:44.702Z,9116
2018-03-07T11:33:46.512Z,9776
2018-03-07T11:34:48.176Z,10332
2018-03-07T11:35:49.838Z,11988
2018-03-07T11:36:51.490Z,13432
2018-03-07T11:37:53.161Z,13496
2018-03-07T11:39:00.873Z,12880
2018-03-07T11:40:02.554Z,11696
2018-03-07T11:41:04.229Z,9740
2018-03-07T11:42:05.900Z,9436
2018-03-07T11:43:07.981Z,11296
2018-03-07T11:44:10.072Z,12108
2018-03-07T11:45:12.260Z,10956
2018-03-07T11:46:13.699Z,11028
2018-03-07T11:47:15.370Z,11420
2018-03-07T11:48:17.021Z,13304
2018-03-07T11:49:18.709Z,13708
2018-03-07T11:50:20.369Z,11920
2018-03-07T11:51:22.030Z,10624
2018-03-07T11:52:23.695Z,8504
2018-03-07T11:53:25.352Z,6792
2018-03-07T11:54:27.007Z,5812
2018-03-07T11:55:28.674Z,5108
2018-03-07T11:56:30.334Z,4936
2018-03-07T11:57:31.996Z,5036
2018-03-07T11:58:33.659Z,4884
2018-03-07T11:59:35.321Z,4760
2018-03-07T12:00:36.980Z,4408
2018-03-07T12:01:38.637Z,4344
2018-03-07T12:02:40.305Z,5244
2018-03-07T12:03:41.960Z,5756
2018-03-07T12:04:43.623Z,5920
2018-03-07T12:05:45.288Z,6324
2018-03-07T12:06:46.947Z,6204
2018-03-07T12:07:48.613Z,6436
2018-03-07T12:08:50.271Z,5820
2018-03-07T12:09:51.936Z,5604
2018-03-07T12:10:53.596Z,5580
2018-03-07T12:11:55.248Z,6236
2018-03-07T12:12:56.945Z,6352
2018-03-07T12:13:58.601Z,6736
2018-03-07T12:15:00.263Z,8104
2018-03-07T12:16:01.920Z,7848
2018-03-07T12:17:03.576Z,7656
2018-03-07T12:18:05.228Z,8580
2018-03-07T12:19:06.891Z,9332
2018-03-07T12:20:08.546Z,8732
2018-03-07T12:21:10.204Z,7976
2018-03-07T12:22:11.868Z,7416
2018-03-07T12:23:13.521Z,7004
2018-03-07T12:24:15.190Z,6024
2018-03-07T12:25:16.848Z,6016
2018-03-07T12:26:18.515Z,7092
2018-03-07T12:27:20.175Z,7872
2018-03-07T12:28:21.828Z,9020
2018-03-07T12:29:23.484Z,8840
2018-03-07T12:30:25.144Z,8704
2018-03-07T12:31:26.807Z,9248
2018-03-07T12:32:28.462Z,9500
2018-03-07T12:33:30.126Z,10204
2018-03-07T12:34:33.571Z,10104
2018-03-07T12:35:35.232Z,9400
2018-03-07T12:36:36.883Z,10200
2018-03-07T12:37:38.554Z,10888
2018-03-07T12:38:40.426Z,11084
2018-03-07T12:39:42.099Z,11668
2018-03-07T12:40:43.757Z,12028
2018-03-07T12:41:45.462Z,13784
2018-03-07T12:42:47.069Z,14908
2018-03-07T12:43:48.722Z,15592
2018-03-07T12:44:50.371Z,16568
2018-03-07T12:45:52.038Z,15860
2018-03-07T12:46:53.695Z,13412
2018-03-07T12:47:55.354Z,11844
2018-03-07T12:48:57.048Z,9904
2018-03-07T12:49:58.737Z,9188
2018-03-07T12:51:03.463Z,9256
2018-03-07T12:52:06.700Z,9236
2018-03-07T12:53:08.356Z,9332
2018-03-07T12:54:10.023Z,9720
2018-03-07T12:55:11.680Z,9220
2018-03-07T12:56:13.347Z,9480
2018-03-07T12:57:14.998Z,10532
2018-03-07T12:58:16.659Z,11952
2018-03-07T12:59:18.325Z,12116
2018-03-07T13:00:19.984Z,11168
2018-03-07T13:01:21.645Z,11116
2018-03-07T13:02:23.306Z,12228
2018-03-07T13:03:25.006Z,13748
2018-03-07T13:04:26.671Z,13988
2018-03-07T13:05:28.332Z,14076
2018-03-07T13:06:29.982Z,13264
2018-03-07T13:07:31.644Z,12768
2018-03-07T13:08:33.297Z,12516
2018-03-07T13:09:34.953Z,13648
2018-03-07T13:10:36.617Z,14944
2018-03-07T13:11:38.291Z,14376
2018-03-07T13:12:39.950Z,13628
2018-03-07T13:13:41.612Z,12820
2018-03-07T13:14:43.270Z,10968
2018-03-07T13:15:44.932Z,9032
2018-03-07T13:16:46.590Z,8492
2018-03-07T13:17:48.251Z,8308
2018-03-07T13:18:49.916Z,8140
2018-03-07T13:19:51.571Z,9780
2018-03-07T13:20:53.236Z,11124
2018-03-07T13:21:54.886Z,9736
2018-03-07T13:22:56.544Z,8804
2018-03-07T13:23:58.220Z,7232
2018-03-07T13:24:59.867Z,7396
2018-03-07T13:26:01.611Z,9584
2018-03-07T13:27:03.270Z,11188
2018-03-07T13:28:04.916Z,14000
2018-03-07T13:29:06.577Z,16720
2018-03-07T13:30:08.243Z,15228
2018-03-07T13:31:09.914Z,14184
2018-03-07T13:32:11.651Z,15540
2018-03-07T13:33:13.304Z,19360
2018-03-07T13:34:14.966Z,22112
2018-03-07T13:35:16.616Z,22464
2018-03-07T13:36:18.275Z,19744
2018-03-07T13:37:19.947Z,16888
2018-03-07T13:38:21.614Z,16640
2018-03-07T13:39:23.265Z,17760
2018-03-07T13:40:24.940Z,16032
2018-03-07T13:41:26.593Z,13388
2018-03-07T13:42:28.250Z,12040
2018-03-07T13:43:29.911Z,10532
2018-03-07T13:44:31.580Z,10196
2018-03-07T13:45:33.304Z,10576
2018-03-07T13:46:34.965Z,9328
2018-03-07T13:47:36.617Z,7380
2018-03-07T13:48:38.284Z,6200
2018-03-07T13:49:40.921Z,6088
2018-03-07T13:50:42.581Z,6816
2018-03-07T13:51:44.236Z,6784
2018-03-07T13:52:47.005Z,6160
2018-03-07T13:53:48.670Z,6700
2018-03-07T13:54:50.429Z,8100
2018-03-07T13:55:51.960Z,8492
2018-03-07T13:56:53.623Z,7076
2018-03-07T13:57:55.286Z,7080
2018-03-07T13:58:56.955Z,6728
2018-03-07T13:59:58.608Z,7256
2018-03-07T14:01:00.302Z,8964
2018-03-07T14:02:01.964Z,9724
2018-03-07T14:03:03.622Z,9664
2018-03-07T14:04:05.304Z,10444
2018-03-07T14:05:06.972Z,11180
2018-03-07T14:06:08.642Z,12092
2018-03-07T14:07:10.305Z,12544
2018-03-07T14:08:11.974Z,14820
2018-03-07T14:09:13.671Z,16496
2018-03-07T14:10:15.327Z,16388
2018-03-07T14:11:17.020Z,17012
2018-03-07T14:12:18.792Z,17824
2018-03-07T14:13:20.590Z,16116
2018-03-07T14:14:22.345Z,14164
2018-03-07T14:15:23.999Z,13012
2018-03-07T14:16:25.690Z,12424
2018-03-07T14:17:27.340Z,11624
2018-03-07T14:18:29.000Z,11272
2018-03-07T14:19:30.952Z,11828
2018-03-07T14:20:32.620Z,12088
2018-03-07T14:21:34.272Z,12392
2018-03-07T14:22:35.994Z,12072
2018-03-07T14:23:37.608Z,12296
2018-03-07T14:24:39.270Z,12292
2018-03-07T14:25:40.940Z,12712
2018-03-07T14:26:42.596Z,13516
2018-03-07T14:27:44.279Z,14108